sensor_id;sensor_type;location;lat;lon;timestamp;pressure;altitude;pressure_sealevel;temperature;humidity
12913;BME280;6524;51.368;11.984;2023-08-07T04:28:50;155067.47;;;11.47;79.52
12913;BME280;6524;51.368;11.984;2023-08-07T04:33:50;155143.31;;;11.77;78.56
12913;BME280;6524;51.368;11.984;2023-08-07T04:38:54;155169.50;;;11.87;77.93
12913;BME280;6524;51.368;11.984;2023-08-07T04:43:55;155091.00;;;11.56;79.07
12913;BME280;6524;51.368;11.984;2023-08-07T04:48:55;155153.81;;;11.81;78.81
12913;BME280;6524;51.368;11.984;2023-08-07T04:53:56;155140.72;;;11.76;77.96
12913;BME280;6524;51.368;11.984;2023-08-07T04:58:56;155183.84;;;11.93;77.74
12913;BME280;6524;51.368;11.984;2023-08-07T05:03:57;155151.16;;;11.80;77.36
12913;BME280;6524;51.368;11.984;2023-08-07T05:08:58;155111.94;;;11.64;78.83
12913;BME280;6524;51.368;11.984;2023-08-07T05:13:58;155115.91;;;11.66;78.16
12913;BME280;6524;51.368;11.984;2023-08-07T05:18:59;155199.53;;;11.99;77.07
12913;BME280;6524;51.368;11.984;2023-08-07T05:23:59;155161.66;;;11.84;77.69
12913;BME280;6524;51.368;11.984;2023-08-07T05:29:00;155114.59;;;11.66;78.04
12913;BME280;6524;51.368;11.984;2023-08-07T05:34:00;155242.72;;;12.16;76.36
12913;BME280;6524;51.368;11.984;2023-08-07T05:39:00;155130.28;;;11.72;77.64
12913;BME280;6524;51.368;11.984;2023-08-07T05:44:01;155148.56;;;11.79;76.94
12913;BME280;6524;51.368;11.984;2023-08-07T05:49:01;155185.19;;;11.93;76.59
12913;BME280;6524;51.368;11.984;2023-08-07T05:54:01;155251.88;;;12.19;75.12
12913;BME280;6524;51.368;11.984;2023-08-07T05:59:01;155314.63;;;12.44;75.07
12913;BME280;6524;51.368;11.984;2023-08-07T06:04:02;155329.00;;;12.49;75.01
12913;BME280;6524;51.368;11.984;2023-08-07T06:09:02;155572.47;;;13.44;71.67
12913;BME280;6524;51.368;11.984;2023-08-07T06:14:03;155965.38;;;14.98;67.54
12913;BME280;6524;51.368;11.984;2023-08-07T06:19:04;156252.41;;;16.10;61.91
12913;BME280;6524;51.368;11.984;2023-08-07T06:24:04;156238.03;;;16.04;61.31
12913;BME280;6524;51.368;11.984;2023-08-07T06:29:04;156392.78;;;16.64;59.13
12913;BME280;6524;51.368;11.984;2023-08-07T06:34:05;156411.13;;;16.72;58.90
12913;BME280;6524;51.368;11.984;2023-08-07T06:39:05;156421.63;;;16.76;58.71
12913;BME280;6524;51.368;11.984;2023-08-07T06:44:05;156487.25;;;17.01;57.31
12913;BME280;6524;51.368;11.984;2023-08-07T06:49:06;156678.81;;;17.76;55.41
12913;BME280;6524;51.368;11.984;2023-08-07T06:54:06;156699.88;;;17.84;54.71
12913;BME280;6524;51.368;11.984;2023-08-07T06:59:06;156797.00;;;18.22;53.60
12913;BME280;6524;51.368;11.984;2023-08-07T07:04:06;156707.75;;;17.87;54.58
12913;BME280;6524;51.368;11.984;2023-08-07T07:09:07;156676.19;;;17.75;54.75
12913;BME280;6524;51.368;11.984;2023-08-07T07:14:07;156592.25;;;17.42;55.31
12913;BME280;6524;51.368;11.984;2023-08-07T07:19:08;156550.22;;;17.26;55.51
12913;BME280;6524;51.368;11.984;2023-08-07T07:24:09;156686.69;;;17.79;54.23
12913;BME280;6524;51.368;11.984;2023-08-07T07:29:10;156852.16;;;18.43;52.83
12913;BME280;6524;51.368;11.984;2023-08-07T07:34:10;157192.41;;;19.76;49.29
12913;BME280;6524;51.368;11.984;2023-08-07T07:39:10;157120.16;;;19.48;48.30
12913;BME280;6524;51.368;11.984;2023-08-07T07:44:11;156361.31;;;16.52;56.50
12913;BME280;6524;51.368;11.984;2023-08-07T07:49:11;156772.06;;;18.12;53.66
12913;BME280;6524;51.368;11.984;2023-08-07T07:54:12;157084.69;;;19.34;49.77
12913;BME280;6524;51.368;11.984;2023-08-07T07:59:12;156484.59;;;17.00;54.67
12913;BME280;6524;51.368;11.984;2023-08-07T08:04:14;156342.97;;;16.45;57.37
12913;BME280;6524;51.368;11.984;2023-08-07T08:09:14;156407.22;;;16.70;57.75
12913;BME280;6524;51.368;11.984;2023-08-07T08:14:15;156175.09;;;15.80;59.58
12913;BME280;6524;51.368;11.984;2023-08-07T08:19:16;155996.84;;;15.10;61.57
12913;BME280;6524;51.368;11.984;2023-08-07T08:24:17;155884.13;;;14.66;61.64
12913;BME280;6524;51.368;11.984;2023-08-07T08:29:18;155986.31;;;15.06;62.88
12913;BME280;6524;51.368;11.984;2023-08-07T08:34:19;155894.59;;;14.70;62.90
12913;BME280;6524;51.368;11.984;2023-08-07T08:39:19;155915.56;;;14.78;63.38
12913;BME280;6524;51.368;11.984;2023-08-07T08:44:22;155826.47;;;14.44;64.52
12913;BME280;6524;51.368;11.984;2023-08-07T08:49:29;155928.63;;;14.83;64.04
12913;BME280;6524;51.368;11.984;2023-08-07T08:54:32;156125.25;;;15.60;61.22
12913;BME280;6524;51.368;11.984;2023-08-07T08:59:33;156356.03;;;16.50;57.79
12913;BME280;6524;51.368;11.984;2023-08-07T09:04:34;156660.44;;;17.69;55.83
12913;BME280;6524;51.368;11.984;2023-08-07T09:09:34;156737.94;;;17.99;55.13
12913;BME280;6524;51.368;11.984;2023-08-07T09:14:37;156652.56;;;17.66;55.71
12913;BME280;6524;51.368;11.984;2023-08-07T09:19:42;156673.59;;;17.74;55.15
12913;BME280;6524;51.368;11.984;2023-08-07T09:24:42;156752.41;;;18.04;54.17
12913;BME280;6524;51.368;11.984;2023-08-07T09:29:43;156628.94;;;17.56;55.03
12913;BME280;6524;51.368;11.984;2023-08-07T09:34:44;156623.72;;;17.54;54.57
12913;BME280;6524;51.368;11.984;2023-08-07T09:39:46;156499.03;;;17.06;57.00
12913;BME280;6524;51.368;11.984;2023-08-07T09:44:46;156238.03;;;16.04;59.64
12913;BME280;6524;51.368;11.984;2023-08-07T09:49:54;156025.63;;;15.21;60.50
12913;BME280;6524;51.368;11.984;2023-08-07T09:54:56;156140.97;;;15.66;60.80
12913;BME280;6524;51.368;11.984;2023-08-07T09:59:59;156257.66;;;16.12;60.00
12913;BME280;6524;51.368;11.984;2023-08-07T10:05:00;156449.19;;;16.86;59.17
12913;BME280;6524;51.368;11.984;2023-08-07T10:10:05;156353.44;;;16.49;59.56
12913;BME280;6524;51.368;11.984;2023-08-07T10:15:07;156510.84;;;17.10;58.83
12913;BME280;6524;51.368;11.984;2023-08-07T10:20:09;156424.28;;;16.77;58.88
12913;BME280;6524;51.368;11.984;2023-08-07T10:25:09;156655.22;;;17.67;56.38
12913;BME280;6524;51.368;11.984;2023-08-07T10:30:11;156689.34;;;17.80;54.20
12913;BME280;6524;51.368;11.984;2023-08-07T10:35:33;156692.00;;;17.81;52.36
12913;BME280;6524;51.368;11.984;2023-08-07T10:40:34;156886.31;;;18.57;51.24
12913;BME280;6524;51.368;11.984;2023-08-07T10:45:34;157019.00;;;19.08;49.50
12913;BME280;6524;51.368;11.984;2023-08-07T10:50:49;156999.25;;;19.00;49.69
12913;BME280;6524;51.368;11.984;2023-08-07T10:55:49;156906.06;;;18.64;51.79
12913;BME280;6524;51.368;11.984;2023-08-07T11:00:51;156925.72;;;18.72;51.00
12913;BME280;6524;51.368;11.984;2023-08-07T11:05:51;156579.09;;;17.37;53.20
12913;BME280;6524;51.368;11.984;2023-08-07T11:10:53;156545.00;;;17.24;55.41
12913;BME280;6524;51.368;11.984;2023-08-07T11:15:55;156576.50;;;17.36;54.93
12913;BME280;6524;51.368;11.984;2023-08-07T11:20:55;156734.00;;;17.97;54.58
12913;BME280;6524;51.368;11.984;2023-08-07T11:25:57;156917.84;;;18.69;51.29
12913;BME280;6524;51.368;11.984;2023-08-07T11:30:58;156840.34;;;18.39;51.38
12913;BME280;6524;51.368;11.984;2023-08-07T11:35:59;156694.59;;;17.82;52.01
12913;BME280;6524;51.368;11.984;2023-08-07T11:41:04;156437.34;;;16.82;52.58
12913;BME280;6524;51.368;11.984;2023-08-07T11:46:10;156445.22;;;16.85;53.43
12913;BME280;6524;51.368;11.984;2023-08-07T11:51:11;156335.09;;;16.42;54.92
12913;BME280;6524;51.368;11.984;2023-08-07T11:56:13;156413.78;;;16.73;55.36
12913;BME280;6524;51.368;11.984;2023-08-07T12:01:19;156413.78;;;16.73;53.18
12913;BME280;6524;51.368;11.984;2023-08-07T12:06:20;156411.13;;;16.72;53.20
12913;BME280;6524;51.368;11.984;2023-08-07T12:11:20;156251.09;;;16.09;54.91
12913;BME280;6524;51.368;11.984;2023-08-07T12:16:21;156307.47;;;16.31;54.96
12913;BME280;6524;51.368;11.984;2023-08-07T12:21:23;156291.75;;;16.25;56.22
12913;BME280;6524;51.368;11.984;2023-08-07T12:26:26;156198.69;;;15.89;60.01
12913;BME280;6524;51.368;11.984;2023-08-07T12:31:26;156264.25;;;16.14;59.36
12913;BME280;6524;51.368;11.984;2023-08-07T12:36:27;156332.41;;;16.41;57.61
12913;BME280;6524;51.368;11.984;2023-08-07T12:41:27;156453.09;;;16.88;54.27
12913;BME280;6524;51.368;11.984;2023-08-07T12:46:28;156400.66;;;16.67;56.62
12913;BME280;6524;51.368;11.984;2023-08-07T12:51:29;156484.59;;;17.00;56.60
12913;BME280;6524;51.368;11.984;2023-08-07T12:56:29;156542.34;;;17.23;55.22
12913;BME280;6524;51.368;11.984;2023-08-07T13:01:30;156569.91;;;17.33;53.85
12913;BME280;6524;51.368;11.984;2023-08-07T13:06:30;156596.16;;;17.44;53.62
12913;BME280;6524;51.368;11.984;2023-08-07T13:11:30;156798.31;;;18.22;51.17
12913;BME280;6524;51.368;11.984;2023-08-07T13:16:31;156728.78;;;17.95;51.34
12913;BME280;6524;51.368;11.984;2023-08-07T13:21:31;156760.28;;;18.07;51.37
12913;BME280;6524;51.368;11.984;2023-08-07T13:26:32;156861.34;;;18.47;50.31
12913;BME280;6524;51.368;11.984;2023-08-07T13:31:32;156860.03;;;18.46;49.31
12913;BME280;6524;51.368;11.984;2023-08-07T13:36:33;156928.34;;;18.73;47.71
12913;BME280;6524;51.368;11.984;2023-08-07T13:41:33;156823.25;;;18.32;46.45
12913;BME280;6524;51.368;11.984;2023-08-07T13:46:33;156820.63;;;18.31;46.48
12913;BME280;6524;51.368;11.984;2023-08-07T13:51:34;156496.41;;;17.05;49.68
12913;BME280;6524;51.368;11.984;2023-08-07T13:56:34;156453.09;;;16.88;51.36
12913;BME280;6524;51.368;11.984;2023-08-07T14:01:35;156449.19;;;16.86;51.96
12913;BME280;6524;51.368;11.984;2023-08-07T14:06:35;156395.41;;;16.65;54.27
12913;BME280;6524;51.368;11.984;2023-08-07T14:11:38;156235.38;;;16.03;55.35
12913;BME280;6524;51.368;11.984;2023-08-07T14:16:38;156222.28;;;15.98;58.16
12913;BME280;6524;51.368;11.984;2023-08-07T14:21:38;156002.03;;;15.12;65.09
12913;BME280;6524;51.368;11.984;2023-08-07T14:26:39;155889.34;;;14.68;67.73
12913;BME280;6524;51.368;11.984;2023-08-07T14:31:39;156070.22;;;15.39;66.36
12913;BME280;6524;51.368;11.984;2023-08-07T14:36:40;156159.38;;;15.73;63.48
12913;BME280;6524;51.368;11.984;2023-08-07T14:41:40;156084.63;;;15.44;60.85
12913;BME280;6524;51.368;11.984;2023-08-07T14:46:41;156120.00;;;15.58;61.62
12913;BME280;6524;51.368;11.984;2023-08-07T14:51:42;156295.72;;;16.27;57.39
12913;BME280;6524;51.368;11.984;2023-08-07T14:56:42;156319.31;;;16.36;56.15
12913;BME280;6524;51.368;11.984;2023-08-07T15:01:43;156127.84;;;15.61;56.33
12913;BME280;6524;51.368;11.984;2023-08-07T15:06:43;156122.59;;;15.59;58.40
12913;BME280;6524;51.368;11.984;2023-08-07T15:11:46;155939.09;;;14.87;57.54
12913;BME280;6524;51.368;11.984;2023-08-07T15:16:47;155973.25;;;15.01;57.42
12913;BME280;6524;51.368;11.984;2023-08-07T15:21:50;156042.66;;;15.28;55.93
12913;BME280;6524;51.368;11.984;2023-08-07T15:26:50;156316.66;;;16.35;55.55
12913;BME280;6524;51.368;11.984;2023-08-07T15:31:51;156392.78;;;16.64;54.92
12913;BME280;6524;51.368;11.984;2023-08-07T15:36:52;156320.63;;;16.36;53.26
12913;BME280;6524;51.368;11.984;2023-08-07T15:41:52;156231.47;;;16.01;53.13
12913;BME280;6524;51.368;11.984;2023-08-07T15:46:52;156120.00;;;15.58;53.81
12913;BME280;6524;51.368;11.984;2023-08-07T15:51:52;155996.84;;;15.10;54.15
12913;BME280;6524;51.368;11.984;2023-08-07T15:56:53;156158.06;;;15.73;53.32
12913;BME280;6524;51.368;11.984;2023-08-07T16:01:54;156276.00;;;16.19;51.28
12913;BME280;6524;51.368;11.984;2023-08-07T16:06:54;156175.09;;;15.80;49.95
12913;BME280;6524;51.368;11.984;2023-08-07T16:11:54;156180.31;;;15.82;50.29
12913;BME280;6524;51.368;11.984;2023-08-07T16:16:55;156327.19;;;16.39;51.79
12913;BME280;6524;51.368;11.984;2023-08-07T16:21:55;156337.69;;;16.43;52.40
12913;BME280;6524;51.368;11.984;2023-08-07T16:26:55;156222.28;;;15.98;51.60
12913;BME280;6524;51.368;11.984;2023-08-07T16:31:56;156200.00;;;15.89;51.10
12913;BME280;6524;51.368;11.984;2023-08-07T16:36:56;156198.69;;;15.89;51.44
12913;BME280;6524;51.368;11.984;2023-08-07T16:41:57;156201.31;;;15.90;52.30
12913;BME280;6524;51.368;11.984;2023-08-07T16:46:57;156146.19;;;15.68;50.98
12913;BME280;6524;51.368;11.984;2023-08-07T16:51:58;156156.75;;;15.72;50.57
12913;BME280;6524;51.368;11.984;2023-08-07T16:56:59;156080.69;;;15.43;51.83
12913;BME280;6524;51.368;11.984;2023-08-07T17:01:59;156036.16;;;15.25;52.39
12913;BME280;6524;51.368;11.984;2023-08-07T17:06:59;155990.28;;;15.07;53.07
12913;BME280;6524;51.368;11.984;2023-08-07T17:12:01;156004.69;;;15.13;52.77
12913;BME280;6524;51.368;11.984;2023-08-07T17:17:02;155932.59;;;14.85;52.65
12913;BME280;6524;51.368;11.984;2023-08-07T17:22:02;155873.63;;;14.62;52.39
12913;BME280;6524;51.368;11.984;2023-08-07T17:27:05;155892.00;;;14.69;52.00
12913;BME280;6524;51.368;11.984;2023-08-07T17:32:05;155816.00;;;14.39;52.35
12913;BME280;6524;51.368;11.984;2023-08-07T17:37:06;155805.53;;;14.35;53.10
12913;BME280;6524;51.368;11.984;2023-08-07T17:42:07;155768.84;;;14.21;53.96
12913;BME280;6524;51.368;11.984;2023-08-07T17:47:08;155818.59;;;14.40;53.39
12913;BME280;6524;51.368;11.984;2023-08-07T17:52:08;155757.09;;;14.16;54.01
12913;BME280;6524;51.368;11.984;2023-08-07T17:57:13;155687.63;;;13.89;54.49
12913;BME280;6524;51.368;11.984;2023-08-07T18:02:14;155636.59;;;13.69;54.36
12913;BME280;6524;51.368;11.984;2023-08-07T18:07:14;155614.34;;;13.61;54.56
12913;BME280;6524;51.368;11.984;2023-08-07T18:12:15;155624.78;;;13.65;54.07
12913;BME280;6524;51.368;11.984;2023-08-07T18:17:15;155606.47;;;13.58;52.88
12913;BME280;6524;51.368;11.984;2023-08-07T18:22:16;155569.81;;;13.43;53.02
12913;BME280;6524;51.368;11.984;2023-08-07T18:27:17;155559.38;;;13.39;53.09
12913;BME280;6524;51.368;11.984;2023-08-07T18:32:17;155562.00;;;13.40;52.86
12913;BME280;6524;51.368;11.984;2023-08-07T18:37:18;155551.50;;;13.36;52.42
12913;BME280;6524;51.368;11.984;2023-08-07T18:42:21;155517.44;;;13.23;51.71
12913;BME280;6524;51.368;11.984;2023-08-07T18:47:21;155598.63;;;13.55;51.54
12913;BME280;6524;51.368;11.984;2023-08-07T18:52:22;155611.75;;;13.60;51.44
12913;BME280;6524;51.368;11.984;2023-08-07T18:57:22;155623.50;;;13.64;51.89
12913;BME280;6524;51.368;11.984;2023-08-07T19:02:22;155679.78;;;13.86;51.58
12913;BME280;6524;51.368;11.984;2023-08-07T19:07:23;155632.66;;;13.68;51.32
12913;BME280;6524;51.368;11.984;2023-08-07T19:12:23;155656.22;;;13.77;51.33
12913;BME280;6524;51.368;11.984;2023-08-07T19:17:24;155590.78;;;13.52;51.59
12913;BME280;6524;51.368;11.984;2023-08-07T19:22:24;155582.94;;;13.48;51.46
12913;BME280;6524;51.368;11.984;2023-08-07T19:27:27;155575.06;;;13.45;51.82
12913;BME280;6524;51.368;11.984;2023-08-07T19:32:28;155565.91;;;13.42;51.75
12913;BME280;6524;51.368;11.984;2023-08-07T19:37:29;155569.81;;;13.43;52.14
12913;BME280;6524;51.368;11.984;2023-08-07T19:42:30;155571.16;;;13.44;52.06
12913;BME280;6524;51.368;11.984;2023-08-07T19:47:30;155582.94;;;13.48;53.17
12913;BME280;6524;51.368;11.984;2023-08-07T19:52:31;155534.47;;;13.30;53.02
12913;BME280;6524;51.368;11.984;2023-08-07T19:57:31;155510.91;;;13.20;53.81
12913;BME280;6524;51.368;11.984;2023-08-07T20:02:32;155467.75;;;13.03;54.61
12913;BME280;6524;51.368;11.984;2023-08-07T20:07:34;155472.94;;;13.06;54.27
12913;BME280;6524;51.368;11.984;2023-08-07T20:12:36;155370.94;;;12.66;54.92
12913;BME280;6524;51.368;11.984;2023-08-07T20:17:37;155365.69;;;12.64;55.94
12913;BME280;6524;51.368;11.984;2023-08-07T20:22:37;155302.84;;;12.39;56.30
12913;BME280;6524;51.368;11.984;2023-08-07T20:27:37;155302.84;;;12.39;56.89
12913;BME280;6524;51.368;11.984;2023-08-07T20:32:37;155334.28;;;12.51;56.95
12913;BME280;6524;51.368;11.984;2023-08-07T20:37:38;155356.53;;;12.60;57.12
12913;BME280;6524;51.368;11.984;2023-08-07T20:42:38;155292.41;;;12.35;57.30
12913;BME280;6524;51.368;11.984;2023-08-07T20:47:39;155255.75;;;12.21;57.83
12913;BME280;6524;51.368;11.984;2023-08-07T20:52:39;155310.69;;;12.42;57.71
12913;BME280;6524;51.368;11.984;2023-08-07T20:57:39;155253.16;;;12.20;58.59
12913;BME280;6524;51.368;11.984;2023-08-07T21:02:40;155164.25;;;11.85;59.99
12913;BME280;6524;51.368;11.984;2023-08-07T21:07:40;155126.34;;;11.70;60.72
12913;BME280;6524;51.368;11.984;2023-08-07T21:12:40;155118.50;;;11.67;61.48
12913;BME280;6524;51.368;11.984;2023-08-07T21:17:41;155138.13;;;11.75;61.47
12913;BME280;6524;51.368;11.984;2023-08-07T21:22:41;155130.28;;;11.72;61.26
12913;BME280;6524;51.368;11.984;2023-08-07T21:27:41;155143.31;;;11.77;61.58
12913;BME280;6524;51.368;11.984;2023-08-07T21:32:43;155148.56;;;11.79;61.64
12913;BME280;6524;51.368;11.984;2023-08-07T21:37:44;155088.38;;;11.55;62.42
12913;BME280;6524;51.368;11.984;2023-08-07T21:42:44;155023.03;;;11.30;63.78
12913;BME280;6524;51.368;11.984;2023-08-07T21:47:45;155017.81;;;11.28;63.37
12913;BME280;6524;51.368;11.984;2023-08-07T21:52:45;154892.38;;;10.79;65.44
12913;BME280;6524;51.368;11.984;2023-08-07T21:57:46;154913.31;;;10.87;65.35
12913;BME280;6524;51.368;11.984;2023-08-07T22:02:47;154913.31;;;10.87;65.80
12913;BME280;6524;51.368;11.984;2023-08-07T22:07:47;154945.97;;;11.00;65.30
12913;BME280;6524;51.368;11.984;2023-08-07T22:12:47;154922.44;;;10.90;65.74
12913;BME280;6524;51.368;11.984;2023-08-07T22:17:48;154934.19;;;10.95;65.32
12913;BME280;6524;51.368;11.984;2023-08-07T22:22:48;154913.31;;;10.87;65.93
12913;BME280;6524;51.368;11.984;2023-08-07T22:27:49;154857.06;;;10.65;66.34
12913;BME280;6524;51.368;11.984;2023-08-07T22:32:49;154902.81;;;10.83;66.28
12913;BME280;6524;51.368;11.984;2023-08-07T22:37:50;154928.97;;;10.93;66.14
12913;BME280;6524;51.368;11.984;2023-08-07T22:42:50;154949.84;;;11.01;65.69
12913;BME280;6524;51.368;11.984;2023-08-07T22:47:51;154915.91;;;10.88;66.38
12913;BME280;6524;51.368;11.984;2023-08-07T22:52:51;154934.19;;;10.95;66.52
12913;BME280;6524;51.368;11.984;2023-08-07T22:57:51;154808.75;;;10.46;67.90
12913;BME280;6524;51.368;11.984;2023-08-07T23:02:54;154803.50;;;10.44;68.21
12913;BME280;6524;51.368;11.984;2023-08-07T23:07:54;154806.09;;;10.45;67.54
12913;BME280;6524;51.368;11.984;2023-08-07T23:12:55;154829.63;;;10.54;67.58
12913;BME280;6524;51.368;11.984;2023-08-07T23:17:56;154837.47;;;10.57;67.39
12913;BME280;6524;51.368;11.984;2023-08-07T23:22:56;154790.44;;;10.39;67.88
12913;BME280;6524;51.368;11.984;2023-08-07T23:27:57;154725.16;;;10.13;68.56
12913;BME280;6524;51.368;11.984;2023-08-07T23:32:57;154680.78;;;9.96;68.89
12913;BME280;6524;51.368;11.984;2023-08-07T23:37:57;154753.91;;;10.24;67.55
12913;BME280;6524;51.368;11.984;2023-08-07T23:42:58;154764.31;;;10.29;66.62
12913;BME280;6524;51.368;11.984;2023-08-07T23:47:58;154772.16;;;10.32;66.92
12913;BME280;6524;51.368;11.984;2023-08-07T23:52:58;154704.28;;;10.05;67.40
12913;BME280;6524;51.368;11.984;2023-08-07T23:57:58;154706.88;;;10.06;67.15
